sensor_id;sensor_type;location;lat;lon;timestamp;P1;durP1;ratioP1;P2;durP2;ratioP2
15899;SDS011;8048;50.644;6.184;2022-12-05T00:03:44;5.47;;;4.57;;
15899;SDS011;8048;50.644;6.184;2022-12-05T00:06:11;4.63;;;3.73;;
15899;SDS011;8048;50.644;6.184;2022-12-05T00:08:36;4.97;;;4.57;;
15899;SDS011;8048;50.644;6.184;2022-12-05T00:11:02;3.60;;;3.30;;
15899;SDS011;8048;50.644;6.184;2022-12-05T00:13:28;3.27;;;3.00;;
15899;SDS011;8048;50.644;6.184;2022-12-05T00:15:53;3.40;;;3.20;;
15899;SDS011;8048;50.644;6.184;2022-12-05T00:18:19;4.20;;;3.80;;
15899;SDS011;8048;50.644;6.184;2022-12-05T00:20:45;5.17;;;3.57;;
15899;SDS011;8048;50.644;6.184;2022-12-05T00:23:11;4.73;;;4.07;;
15899;SDS011;8048;50.644;6.184;2022-12-05T00:25:37;3.50;;;3.20;;
15899;SDS011;8048;50.644;6.184;2022-12-05T00:28:03;5.33;;;3.17;;
15899;SDS011;8048;50.644;6.184;2022-12-05T00:30:28;3.67;;;3.43;;
15899;SDS011;8048;50.644;6.184;2022-12-05T00:32:54;5.20;;;4.77;;
15899;SDS011;8048;50.644;6.184;2022-12-05T00:35:19;4.50;;;4.10;;
15899;SDS011;8048;50.644;6.184;2022-12-05T00:37:45;4.53;;;3.90;;
15899;SDS011;8048;50.644;6.184;2022-12-05T00:40:11;4.93;;;4.53;;
15899;SDS011;8048;50.644;6.184;2022-12-05T00:42:36;4.70;;;3.87;;
15899;SDS011;8048;50.644;6.184;2022-12-05T00:45:02;4.50;;;4.13;;
15899;SDS011;8048;50.644;6.184;2022-12-05T00:47:28;3.60;;;3.30;;
15899;SDS011;8048;50.644;6.184;2022-12-05T00:49:53;5.47;;;3.53;;
15899;SDS011;8048;50.644;6.184;2022-12-05T00:52:19;5.47;;;4.07;;
15899;SDS011;8048;50.644;6.184;2022-12-05T00:54:44;4.40;;;3.70;;
15899;SDS011;8048;50.644;6.184;2022-12-05T00:57:10;4.40;;;4.00;;
15899;SDS011;8048;50.644;6.184;2022-12-05T00:59:35;3.80;;;3.50;;
15899;SDS011;8048;50.644;6.184;2022-12-05T01:02:01;4.07;;;3.57;;
15899;SDS011;8048;50.644;6.184;2022-12-05T01:04:26;5.53;;;3.30;;
15899;SDS011;8048;50.644;6.184;2022-12-05T01:06:55;3.97;;;3.57;;
15899;SDS011;8048;50.644;6.184;2022-12-05T01:09:22;5.20;;;4.67;;
15899;SDS011;8048;50.644;6.184;2022-12-05T01:11:48;3.43;;;3.23;;
15899;SDS011;8048;50.644;6.184;2022-12-05T01:14:15;7.90;;;3.37;;
15899;SDS011;8048;50.644;6.184;2022-12-05T01:16:43;4.10;;;3.53;;
15899;SDS011;8048;50.644;6.184;2022-12-05T01:19:11;3.80;;;3.40;;
15899;SDS011;8048;50.644;6.184;2022-12-05T01:21:39;3.73;;;3.43;;
15899;SDS011;8048;50.644;6.184;2022-12-05T01:24:05;4.83;;;4.37;;
15899;SDS011;8048;50.644;6.184;2022-12-05T01:26:31;3.57;;;3.30;;
15899;SDS011;8048;50.644;6.184;2022-12-05T01:28:57;4.80;;;4.40;;
15899;SDS011;8048;50.644;6.184;2022-12-05T01:31:24;4.27;;;3.80;;
15899;SDS011;8048;50.644;6.184;2022-12-05T01:33:58;5.20;;;3.90;;
15899;SDS011;8048;50.644;6.184;2022-12-05T01:36:25;3.43;;;3.10;;
15899;SDS011;8048;50.644;6.184;2022-12-05T01:38:51;3.23;;;3.03;;
15899;SDS011;8048;50.644;6.184;2022-12-05T01:41:18;3.63;;;3.43;;
15899;SDS011;8048;50.644;6.184;2022-12-05T01:46:23;3.87;;;3.57;;
15899;SDS011;8048;50.644;6.184;2022-12-05T01:48:50;3.37;;;3.17;;
15899;SDS011;8048;50.644;6.184;2022-12-05T01:51:19;4.10;;;3.80;;
15899;SDS011;8048;50.644;6.184;2022-12-05T01:53:45;5.53;;;3.30;;
15899;SDS011;8048;50.644;6.184;2022-12-05T01:56:11;3.80;;;3.50;;
15899;SDS011;8048;50.644;6.184;2022-12-05T01:58:37;3.63;;;3.33;;
15899;SDS011;8048;50.644;6.184;2022-12-05T02:01:06;4.60;;;4.20;;
15899;SDS011;8048;50.644;6.184;2022-12-05T02:03:32;4.80;;;4.30;;
15899;SDS011;8048;50.644;6.184;2022-12-05T02:05:59;3.50;;;3.30;;
15899;SDS011;8048;50.644;6.184;2022-12-05T02:08:26;7.20;;;4.00;;
15899;SDS011;8048;50.644;6.184;2022-12-05T02:10:53;3.67;;;3.40;;
15899;SDS011;8048;50.644;6.184;2022-12-05T02:13:27;3.60;;;3.30;;
15899;SDS011;8048;50.644;6.184;2022-12-05T02:16:17;4.13;;;3.73;;
15899;SDS011;8048;50.644;6.184;2022-12-05T02:19:07;4.50;;;4.10;;
15899;SDS011;8048;50.644;6.184;2022-12-05T02:30:17;4.17;;;3.87;;
15899;SDS011;8048;50.644;6.184;2022-12-05T02:33:02;3.80;;;3.40;;
15899;SDS011;8048;50.644;6.184;2022-12-05T02:43:41;3.20;;;3.00;;
15899;SDS011;8048;50.644;6.184;2022-12-05T02:46:19;3.60;;;3.30;;
15899;SDS011;8048;50.644;6.184;2022-12-05T02:48:47;2.33;;;2.13;;
15899;SDS011;8048;50.644;6.184;2022-12-05T02:51:18;3.53;;;3.23;;
15899;SDS011;8048;50.644;6.184;2022-12-05T02:53:46;3.43;;;3.20;;
15899;SDS011;8048;50.644;6.184;2022-12-05T02:56:13;3.20;;;3.00;;
15899;SDS011;8048;50.644;6.184;2022-12-05T02:58:44;3.40;;;3.10;;
15899;SDS011;8048;50.644;6.184;2022-12-05T03:01:14;2.57;;;2.37;;
15899;SDS011;8048;50.644;6.184;2022-12-05T03:03:41;2.43;;;2.30;;
15899;SDS011;8048;50.644;6.184;2022-12-05T03:06:14;2.73;;;2.50;;
15899;SDS011;8048;50.644;6.184;2022-12-05T03:08:48;3.10;;;2.90;;
15899;SDS011;8048;50.644;6.184;2022-12-05T03:11:46;2.90;;;2.53;;
15899;SDS011;8048;50.644;6.184;2022-12-05T03:14:16;2.30;;;2.20;;
15899;SDS011;8048;50.644;6.184;2022-12-05T03:16:48;2.83;;;2.63;;
15899;SDS011;8048;50.644;6.184;2022-12-05T03:19:36;2.67;;;2.47;;
15899;SDS011;8048;50.644;6.184;2022-12-05T03:22:25;2.47;;;2.37;;
15899;SDS011;8048;50.644;6.184;2022-12-05T03:24:52;2.27;;;2.17;;
15899;SDS011;8048;50.644;6.184;2022-12-05T03:27:25;2.53;;;2.43;;
15899;SDS011;8048;50.644;6.184;2022-12-05T03:30:08;2.57;;;2.47;;
15899;SDS011;8048;50.644;6.184;2022-12-05T03:32:44;2.47;;;2.33;;
15899;SDS011;8048;50.644;6.184;2022-12-05T03:35:36;3.30;;;3.20;;
15899;SDS011;8048;50.644;6.184;2022-12-05T03:38:23;2.50;;;2.40;;
15899;SDS011;8048;50.644;6.184;2022-12-05T03:43:48;2.30;;;2.20;;
15899;SDS011;8048;50.644;6.184;2022-12-05T03:46:23;3.20;;;2.90;;
15899;SDS011;8048;50.644;6.184;2022-12-05T03:51:38;2.50;;;2.40;;
15899;SDS011;8048;50.644;6.184;2022-12-05T03:54:11;2.33;;;2.23;;
15899;SDS011;8048;50.644;6.184;2022-12-05T03:56:44;2.90;;;2.23;;
15899;SDS011;8048;50.644;6.184;2022-12-05T03:59:15;3.00;;;2.80;;
15899;SDS011;8048;50.644;6.184;2022-12-05T04:01:49;2.20;;;2.10;;
15899;SDS011;8048;50.644;6.184;2022-12-05T04:04:18;2.53;;;2.33;;
15899;SDS011;8048;50.644;6.184;2022-12-05T04:06:50;1.87;;;1.80;;
15899;SDS011;8048;50.644;6.184;2022-12-05T04:09:22;2.13;;;2.03;;
15899;SDS011;8048;50.644;6.184;2022-12-05T04:11:53;2.13;;;2.03;;
15899;SDS011;8048;50.644;6.184;2022-12-05T04:14:25;1.70;;;1.70;;
15899;SDS011;8048;50.644;6.184;2022-12-05T04:16:59;1.93;;;1.83;;
15899;SDS011;8048;50.644;6.184;2022-12-05T04:19:33;2.90;;;2.60;;
15899;SDS011;8048;50.644;6.184;2022-12-05T04:22:30;2.33;;;2.23;;
15899;SDS011;8048;50.644;6.184;2022-12-05T04:24:57;2.47;;;2.37;;
15899;SDS011;8048;50.644;6.184;2022-12-05T04:30:21;2.20;;;2.10;;
15899;SDS011;8048;50.644;6.184;2022-12-05T04:32:55;2.07;;;1.97;;
15899;SDS011;8048;50.644;6.184;2022-12-05T04:35:25;1.73;;;1.67;;
15899;SDS011;8048;50.644;6.184;2022-12-05T04:38:02;2.10;;;2.00;;
15899;SDS011;8048;50.644;6.184;2022-12-05T04:40:34;1.90;;;1.80;;
15899;SDS011;8048;50.644;6.184;2022-12-05T04:43:03;2.17;;;2.07;;
15899;SDS011;8048;50.644;6.184;2022-12-05T04:45:31;2.40;;;2.30;;
15899;SDS011;8048;50.644;6.184;2022-12-05T04:47:59;2.30;;;2.20;;
15899;SDS011;8048;50.644;6.184;2022-12-05T04:50:31;2.00;;;1.90;;
15899;SDS011;8048;50.644;6.184;2022-12-05T04:52:58;1.93;;;1.87;;
15899;SDS011;8048;50.644;6.184;2022-12-05T04:55:26;2.67;;;2.47;;
15899;SDS011;8048;50.644;6.184;2022-12-05T04:57:57;1.97;;;1.87;;
15899;SDS011;8048;50.644;6.184;2022-12-05T05:00:30;2.13;;;1.83;;
15899;SDS011;8048;50.644;6.184;2022-12-05T05:03:07;2.00;;;2.00;;
15899;SDS011;8048;50.644;6.184;2022-12-05T05:05:47;1.70;;;1.70;;
15899;SDS011;8048;50.644;6.184;2022-12-05T05:08:17;2.53;;;2.43;;
15899;SDS011;8048;50.644;6.184;2022-12-05T05:10:47;2.43;;;2.33;;
15899;SDS011;8048;50.644;6.184;2022-12-05T05:13:20;2.33;;;2.23;;
15899;SDS011;8048;50.644;6.184;2022-12-05T05:15:47;2.60;;;2.50;;
15899;SDS011;8048;50.644;6.184;2022-12-05T05:18:12;5.20;;;2.40;;
15899;SDS011;8048;50.644;6.184;2022-12-05T05:20:38;2.60;;;2.47;;
15899;SDS011;8048;50.644;6.184;2022-12-05T05:23:03;2.20;;;2.10;;
15899;SDS011;8048;50.644;6.184;2022-12-05T05:25:29;3.20;;;2.87;;
15899;SDS011;8048;50.644;6.184;2022-12-05T05:27:55;3.00;;;2.80;;
15899;SDS011;8048;50.644;6.184;2022-12-05T05:30:21;2.70;;;2.60;;
15899;SDS011;8048;50.644;6.184;2022-12-05T05:32:48;2.87;;;2.67;;
15899;SDS011;8048;50.644;6.184;2022-12-05T05:35:14;2.50;;;2.40;;
15899;SDS011;8048;50.644;6.184;2022-12-05T05:37:39;2.70;;;2.60;;
15899;SDS011;8048;50.644;6.184;2022-12-05T05:40:06;2.73;;;2.63;;
15899;SDS011;8048;50.644;6.184;2022-12-05T05:42:33;2.67;;;2.57;;
15899;SDS011;8048;50.644;6.184;2022-12-05T05:44:58;2.43;;;2.33;;
15899;SDS011;8048;50.644;6.184;2022-12-05T05:47:24;2.90;;;2.70;;
15899;SDS011;8048;50.644;6.184;2022-12-05T05:49:49;2.60;;;2.50;;
15899;SDS011;8048;50.644;6.184;2022-12-05T05:52:15;3.07;;;2.87;;
15899;SDS011;8048;50.644;6.184;2022-12-05T05:54:40;2.30;;;2.20;;
15899;SDS011;8048;50.644;6.184;2022-12-05T05:57:06;2.40;;;2.30;;
15899;SDS011;8048;50.644;6.184;2022-12-05T05:59:31;3.07;;;2.87;;
15899;SDS011;8048;50.644;6.184;2022-12-05T06:01:57;2.50;;;2.40;;
15899;SDS011;8048;50.644;6.184;2022-12-05T06:04:23;2.00;;;1.90;;
15899;SDS011;8048;50.644;6.184;2022-12-05T06:06:48;3.30;;;3.10;;
15899;SDS011;8048;50.644;6.184;2022-12-05T06:09:14;2.67;;;2.50;;
15899;SDS011;8048;50.644;6.184;2022-12-05T06:11:39;2.43;;;2.33;;
15899;SDS011;8048;50.644;6.184;2022-12-05T06:14:05;2.57;;;2.47;;
15899;SDS011;8048;50.644;6.184;2022-12-05T06:16:30;3.03;;;2.73;;
15899;SDS011;8048;50.644;6.184;2022-12-05T06:18:56;3.77;;;3.57;;
15899;SDS011;8048;50.644;6.184;2022-12-05T06:21:23;2.37;;;2.27;;
15899;SDS011;8048;50.644;6.184;2022-12-05T06:23:48;2.43;;;2.33;;
15899;SDS011;8048;50.644;6.184;2022-12-05T06:26:16;2.97;;;2.50;;
15899;SDS011;8048;50.644;6.184;2022-12-05T06:28:43;2.50;;;2.37;;
15899;SDS011;8048;50.644;6.184;2022-12-05T06:31:14;2.63;;;2.53;;
15899;SDS011;8048;50.644;6.184;2022-12-05T06:33:41;2.20;;;2.10;;
15899;SDS011;8048;50.644;6.184;2022-12-05T06:36:09;2.90;;;2.80;;
15899;SDS011;8048;50.644;6.184;2022-12-05T06:38:39;3.03;;;2.93;;
15899;SDS011;8048;50.644;6.184;2022-12-05T06:41:05;2.47;;;2.37;;
15899;SDS011;8048;50.644;6.184;2022-12-05T06:43:32;2.33;;;2.23;;
15899;SDS011;8048;50.644;6.184;2022-12-05T06:45:57;2.93;;;2.73;;
15899;SDS011;8048;50.644;6.184;2022-12-05T06:48:23;3.10;;;2.90;;
15899;SDS011;8048;50.644;6.184;2022-12-05T06:50:50;2.83;;;2.70;;
15899;SDS011;8048;50.644;6.184;2022-12-05T06:53:16;2.80;;;2.63;;
15899;SDS011;8048;50.644;6.184;2022-12-05T06:55:43;2.40;;;2.30;;
15899;SDS011;8048;50.644;6.184;2022-12-05T06:58:09;2.27;;;2.17;;
15899;SDS011;8048;50.644;6.184;2022-12-05T07:00:35;2.67;;;2.57;;
15899;SDS011;8048;50.644;6.184;2022-12-05T07:03:18;3.37;;;3.17;;
15899;SDS011;8048;50.644;6.184;2022-12-05T07:05:44;3.60;;;3.30;;
15899;SDS011;8048;50.644;6.184;2022-12-05T07:08:10;4.03;;;3.83;;
15899;SDS011;8048;50.644;6.184;2022-12-05T07:10:35;3.83;;;3.50;;
15899;SDS011;8048;50.644;6.184;2022-12-05T07:13:01;4.10;;;3.90;;
15899;SDS011;8048;50.644;6.184;2022-12-05T07:15:26;3.20;;;3.00;;
15899;SDS011;8048;50.644;6.184;2022-12-05T07:17:51;3.17;;;3.00;;
15899;SDS011;8048;50.644;6.184;2022-12-05T07:20:17;3.67;;;3.37;;
15899;SDS011;8048;50.644;6.184;2022-12-05T07:22:43;4.00;;;3.60;;
15899;SDS011;8048;50.644;6.184;2022-12-05T07:25:09;4.13;;;3.70;;
15899;SDS011;8048;50.644;6.184;2022-12-05T07:27:35;3.60;;;3.40;;
15899;SDS011;8048;50.644;6.184;2022-12-05T07:30:00;3.07;;;2.97;;
15899;SDS011;8048;50.644;6.184;2022-12-05T07:32:29;3.00;;;2.80;;
15899;SDS011;8048;50.644;6.184;2022-12-05T07:34:57;3.13;;;2.93;;
15899;SDS011;8048;50.644;6.184;2022-12-05T07:37:22;3.00;;;2.80;;
15899;SDS011;8048;50.644;6.184;2022-12-05T07:39:48;2.80;;;2.70;;
15899;SDS011;8048;50.644;6.184;2022-12-05T07:42:15;3.37;;;3.17;;
15899;SDS011;8048;50.644;6.184;2022-12-05T07:44:40;3.40;;;3.10;;
15899;SDS011;8048;50.644;6.184;2022-12-05T07:47:06;3.90;;;3.70;;
15899;SDS011;8048;50.644;6.184;2022-12-05T07:49:31;3.13;;;3.03;;
15899;SDS011;8048;50.644;6.184;2022-12-05T07:51:57;3.00;;;2.80;;
15899;SDS011;8048;50.644;6.184;2022-12-05T07:54:22;3.20;;;3.00;;
15899;SDS011;8048;50.644;6.184;2022-12-05T07:56:48;3.50;;;3.20;;
15899;SDS011;8048;50.644;6.184;2022-12-05T07:59:13;4.27;;;4.03;;
15899;SDS011;8048;50.644;6.184;2022-12-05T08:01:39;3.60;;;3.40;;
15899;SDS011;8048;50.644;6.184;2022-12-05T08:04:04;3.70;;;3.30;;
15899;SDS011;8048;50.644;6.184;2022-12-05T08:06:30;3.63;;;3.33;;
15899;SDS011;8048;50.644;6.184;2022-12-05T08:08:58;3.00;;;2.80;;
15899;SDS011;8048;50.644;6.184;2022-12-05T08:11:24;2.97;;;2.80;;
15899;SDS011;8048;50.644;6.184;2022-12-05T08:13:51;3.43;;;3.23;;
15899;SDS011;8048;50.644;6.184;2022-12-05T08:16:19;2.27;;;2.17;;
15899;SDS011;8048;50.644;6.184;2022-12-05T08:18:46;2.90;;;2.80;;
15899;SDS011;8048;50.644;6.184;2022-12-05T08:21:15;3.20;;;3.03;;
15899;SDS011;8048;50.644;6.184;2022-12-05T08:23:43;2.57;;;2.40;;
15899;SDS011;8048;50.644;6.184;2022-12-05T08:26:14;2.87;;;2.67;;
15899;SDS011;8048;50.644;6.184;2022-12-05T08:28:41;3.63;;;3.33;;
15899;SDS011;8048;50.644;6.184;2022-12-05T08:31:08;2.50;;;2.40;;
15899;SDS011;8048;50.644;6.184;2022-12-05T08:33:37;2.50;;;2.40;;
15899;SDS011;8048;50.644;6.184;2022-12-05T08:36:04;2.27;;;2.20;;
15899;SDS011;8048;50.644;6.184;2022-12-05T08:38:35;2.47;;;2.37;;
15899;SDS011;8048;50.644;6.184;2022-12-05T08:41:02;2.37;;;2.27;;
15899;SDS011;8048;50.644;6.184;2022-12-05T08:43:30;2.53;;;2.43;;
15899;SDS011;8048;50.644;6.184;2022-12-05T08:45:56;1.93;;;1.90;;
15899;SDS011;8048;50.644;6.184;2022-12-05T08:48:22;2.17;;;2.07;;
15899;SDS011;8048;50.644;6.184;2022-12-05T08:50:47;2.10;;;2.07;;
15899;SDS011;8048;50.644;6.184;2022-12-05T08:53:13;2.30;;;2.20;;
15899;SDS011;8048;50.644;6.184;2022-12-05T08:55:39;2.07;;;1.97;;
15899;SDS011;8048;50.644;6.184;2022-12-05T08:58:05;2.43;;;2.33;;
15899;SDS011;8048;50.644;6.184;2022-12-05T09:00:30;2.33;;;2.23;;
15899;SDS011;8048;50.644;6.184;2022-12-05T09:02:56;2.70;;;2.50;;
15899;SDS011;8048;50.644;6.184;2022-12-05T09:05:22;2.40;;;2.30;;
15899;SDS011;8048;50.644;6.184;2022-12-05T09:07:48;2.30;;;2.20;;
15899;SDS011;8048;50.644;6.184;2022-12-05T09:10:14;2.27;;;2.17;;
15899;SDS011;8048;50.644;6.184;2022-12-05T09:12:40;2.17;;;2.03;;
15899;SDS011;8048;50.644;6.184;2022-12-05T09:15:06;2.30;;;2.20;;
15899;SDS011;8048;50.644;6.184;2022-12-05T09:17:33;2.90;;;2.77;;
15899;SDS011;8048;50.644;6.184;2022-12-05T09:19:59;2.20;;;2.10;;
15899;SDS011;8048;50.644;6.184;2022-12-05T09:22:24;2.43;;;2.33;;
15899;SDS011;8048;50.644;6.184;2022-12-05T09:24:50;3.10;;;2.90;;
15899;SDS011;8048;50.644;6.184;2022-12-05T09:27:16;2.60;;;2.50;;
15899;SDS011;8048;50.644;6.184;2022-12-05T09:29:41;2.60;;;2.47;;
15899;SDS011;8048;50.644;6.184;2022-12-05T09:32:07;2.67;;;2.47;;
15899;SDS011;8048;50.644;6.184;2022-12-05T09:34:33;2.80;;;2.07;;
15899;SDS011;8048;50.644;6.184;2022-12-05T09:36:59;1.93;;;1.83;;
15899;SDS011;8048;50.644;6.184;2022-12-05T09:39:25;2.37;;;2.27;;
15899;SDS011;8048;50.644;6.184;2022-12-05T09:41:56;2.10;;;2.00;;
15899;SDS011;8048;50.644;6.184;2022-12-05T09:47:50;2.30;;;2.20;;
15899;SDS011;8048;50.644;6.184;2022-12-05T09:53:35;1.83;;;1.80;;
15899;SDS011;8048;50.644;6.184;2022-12-05T09:55:45;2.70;;;2.60;;
15899;SDS011;8048;50.644;6.184;2022-12-05T10:12:50;1.97;;;1.87;;
15899;SDS011;8048;50.644;6.184;2022-12-05T10:21:04;2.23;;;2.13;;
15899;SDS011;8048;50.644;6.184;2022-12-05T10:24:00;2.93;;;2.70;;
15899;SDS011;8048;50.644;6.184;2022-12-05T10:26:41;2.57;;;2.47;;
15899;SDS011;8048;50.644;6.184;2022-12-05T10:29:13;2.20;;;2.10;;
15899;SDS011;8048;50.644;6.184;2022-12-05T10:31:59;2.37;;;2.17;;
15899;SDS011;8048;50.644;6.184;2022-12-05T10:34:39;2.73;;;2.53;;
15899;SDS011;8048;50.644;6.184;2022-12-05T10:39:46;2.47;;;2.37;;
15899;SDS011;8048;50.644;6.184;2022-12-05T10:42:14;3.10;;;2.77;;
15899;SDS011;8048;50.644;6.184;2022-12-05T10:44:43;2.97;;;2.77;;
15899;SDS011;8048;50.644;6.184;2022-12-05T10:47:09;2.50;;;2.40;;
15899;SDS011;8048;50.644;6.184;2022-12-05T10:49:36;3.00;;;2.80;;
15899;SDS011;8048;50.644;6.184;2022-12-05T10:52:03;3.10;;;2.90;;
15899;SDS011;8048;50.644;6.184;2022-12-05T10:54:29;2.57;;;2.47;;
15899;SDS011;8048;50.644;6.184;2022-12-05T10:56:56;3.60;;;3.40;;
15899;SDS011;8048;50.644;6.184;2022-12-05T10:59:23;3.37;;;3.17;;
15899;SDS011;8048;50.644;6.184;2022-12-05T11:02:02;3.43;;;3.23;;
15899;SDS011;8048;50.644;6.184;2022-12-05T11:04:28;4.43;;;4.03;;
15899;SDS011;8048;50.644;6.184;2022-12-05T11:07:03;4.77;;;4.37;;
15899;SDS011;8048;50.644;6.184;2022-12-05T11:09:34;4.50;;;4.13;;
15899;SDS011;8048;50.644;6.184;2022-12-05T11:14:33;4.20;;;3.90;;
15899;SDS011;8048;50.644;6.184;2022-12-05T11:17:01;3.73;;;3.50;;
15899;SDS011;8048;50.644;6.184;2022-12-05T11:22:00;4.30;;;3.90;;
15899;SDS011;8048;50.644;6.184;2022-12-05T11:26:55;5.43;;;4.40;;
15899;SDS011;8048;50.644;6.184;2022-12-05T11:31:57;6.30;;;5.70;;
15899;SDS011;8048;50.644;6.184;2022-12-05T11:34:24;4.63;;;4.23;;
15899;SDS011;8048;50.644;6.184;2022-12-05T11:36:56;6.00;;;5.40;;
15899;SDS011;8048;50.644;6.184;2022-12-05T11:39:37;6.03;;;5.20;;
15899;SDS011;8048;50.644;6.184;2022-12-05T11:47:31;8.07;;;5.50;;
15899;SDS011;8048;50.644;6.184;2022-12-05T11:50:31;7.00;;;4.60;;
15899;SDS011;8048;50.644;6.184;2022-12-05T11:56:05;6.07;;;5.47;;
15899;SDS011;8048;50.644;6.184;2022-12-05T12:01:27;6.33;;;5.47;;
15899;SDS011;8048;50.644;6.184;2022-12-05T12:12:33;7.30;;;6.53;;
15899;SDS011;8048;50.644;6.184;2022-12-05T12:18:00;5.73;;;5.23;;
15899;SDS011;8048;50.644;6.184;2022-12-05T12:20:40;7.17;;;5.50;;
15899;SDS011;8048;50.644;6.184;2022-12-05T12:23:49;6.00;;;5.40;;
15899;SDS011;8048;50.644;6.184;2022-12-05T12:29:40;5.50;;;5.00;;
15899;SDS011;8048;50.644;6.184;2022-12-05T12:35:00;5.50;;;4.80;;
15899;SDS011;8048;50.644;6.184;2022-12-05T12:40:28;5.60;;;5.03;;
15899;SDS011;8048;50.644;6.184;2022-12-05T12:45:50;7.70;;;6.70;;
15899;SDS011;8048;50.644;6.184;2022-12-05T12:51:09;6.87;;;6.17;;
15899;SDS011;8048;50.644;6.184;2022-12-05T12:53:40;6.90;;;5.40;;
15899;SDS011;8048;50.644;6.184;2022-12-05T13:06:53;6.90;;;5.60;;
15899;SDS011;8048;50.644;6.184;2022-12-05T13:11:53;6.43;;;5.83;;
15899;SDS011;8048;50.644;6.184;2022-12-05T13:14:20;5.20;;;4.80;;
15899;SDS011;8048;50.644;6.184;2022-12-05T13:16:50;7.87;;;6.57;;
15899;SDS011;8048;50.644;6.184;2022-12-05T13:19:40;6.47;;;5.87;;
15899;SDS011;8048;50.644;6.184;2022-12-05T13:22:09;5.63;;;5.13;;
15899;SDS011;8048;50.644;6.184;2022-12-05T13:24:36;6.40;;;4.90;;
15899;SDS011;8048;50.644;6.184;2022-12-05T13:27:05;7.07;;;5.80;;
15899;SDS011;8048;50.644;6.184;2022-12-05T13:29:34;6.00;;;4.60;;
15899;SDS011;8048;50.644;6.184;2022-12-05T13:32:04;5.23;;;4.73;;
15899;SDS011;8048;50.644;6.184;2022-12-05T13:36:59;5.23;;;4.70;;
15899;SDS011;8048;50.644;6.184;2022-12-05T13:39:53;6.20;;;5.67;;
15899;SDS011;8048;50.644;6.184;2022-12-05T13:42:39;8.60;;;5.80;;
15899;SDS011;8048;50.644;6.184;2022-12-05T13:45:07;7.87;;;5.50;;
15899;SDS011;8048;50.644;6.184;2022-12-05T13:52:58;7.13;;;5.43;;
15899;SDS011;8048;50.644;6.184;2022-12-05T13:55:31;7.03;;;6.30;;
15899;SDS011;8048;50.644;6.184;2022-12-05T13:58:00;8.30;;;5.03;;
15899;SDS011;8048;50.644;6.184;2022-12-05T14:00:29;8.67;;;7.80;;
15899;SDS011;8048;50.644;6.184;2022-12-05T14:03:01;8.47;;;5.30;;
15899;SDS011;8048;50.644;6.184;2022-12-05T14:05:36;8.80;;;6.33;;
15899;SDS011;8048;50.644;6.184;2022-12-05T14:08:48;12.40;;;8.20;;
15899;SDS011;8048;50.644;6.184;2022-12-05T14:15:49;11.93;;;8.50;;
15899;SDS011;8048;50.644;6.184;2022-12-05T14:21:20;16.87;;;9.10;;
15899;SDS011;8048;50.644;6.184;2022-12-05T14:32:37;12.60;;;8.53;;
15899;SDS011;8048;50.644;6.184;2022-12-05T14:40:27;10.37;;;7.17;;
15899;SDS011;8048;50.644;6.184;2022-12-05T14:45:36;8.63;;;7.73;;
15899;SDS011;8048;50.644;6.184;2022-12-05T14:48:25;15.13;;;9.17;;
15899;SDS011;8048;50.644;6.184;2022-12-05T14:50:54;10.80;;;7.73;;
15899;SDS011;8048;50.644;6.184;2022-12-05T14:56:15;9.40;;;7.93;;
15899;SDS011;8048;50.644;6.184;2022-12-05T15:01:49;9.00;;;8.23;;
15899;SDS011;8048;50.644;6.184;2022-12-05T15:04:18;9.73;;;7.77;;
15899;SDS011;8048;50.644;6.184;2022-12-05T15:09:30;10.23;;;8.60;;
15899;SDS011;8048;50.644;6.184;2022-12-05T15:12:02;7.60;;;6.57;;
15899;SDS011;8048;50.644;6.184;2022-12-05T15:14:31;11.27;;;8.57;;
15899;SDS011;8048;50.644;6.184;2022-12-05T15:17:03;11.80;;;7.80;;
15899;SDS011;8048;50.644;6.184;2022-12-05T15:19:35;9.70;;;6.50;;
15899;SDS011;8048;50.644;6.184;2022-12-05T15:22:10;8.60;;;7.53;;
15899;SDS011;8048;50.644;6.184;2022-12-05T15:24:39;8.63;;;6.13;;
15899;SDS011;8048;50.644;6.184;2022-12-05T15:27:05;7.97;;;6.10;;
15899;SDS011;8048;50.644;6.184;2022-12-05T15:29:35;6.23;;;5.43;;
15899;SDS011;8048;50.644;6.184;2022-12-05T15:32:13;7.80;;;6.73;;
15899;SDS011;8048;50.644;6.184;2022-12-05T15:34:46;9.03;;;6.40;;
15899;SDS011;8048;50.644;6.184;2022-12-05T15:42:24;8.53;;;7.20;;
15899;SDS011;8048;50.644;6.184;2022-12-05T15:47:42;9.03;;;8.03;;
15899;SDS011;8048;50.644;6.184;2022-12-05T15:50:14;9.37;;;7.37;;
15899;SDS011;8048;50.644;6.184;2022-12-05T15:53:09;8.27;;;6.60;;
15899;SDS011;8048;50.644;6.184;2022-12-05T15:55:47;12.17;;;8.20;;
15899;SDS011;8048;50.644;6.184;2022-12-05T15:58:22;9.70;;;7.90;;
15899;SDS011;8048;50.644;6.184;2022-12-05T16:00:51;8.73;;;7.70;;
15899;SDS011;8048;50.644;6.184;2022-12-05T16:03:58;8.27;;;7.37;;
15899;SDS011;8048;50.644;6.184;2022-12-05T16:06:41;7.60;;;6.97;;
15899;SDS011;8048;50.644;6.184;2022-12-05T16:09:16;11.67;;;6.53;;
15899;SDS011;8048;50.644;6.184;2022-12-05T16:11:51;8.33;;;7.30;;
15899;SDS011;8048;50.644;6.184;2022-12-05T16:14:17;7.37;;;6.07;;
15899;SDS011;8048;50.644;6.184;2022-12-05T16:16:43;8.27;;;7.00;;
15899;SDS011;8048;50.644;6.184;2022-12-05T16:19:13;6.90;;;6.20;;
15899;SDS011;8048;50.644;6.184;2022-12-05T16:21:45;8.80;;;7.27;;
15899;SDS011;8048;50.644;6.184;2022-12-05T16:24:27;5.80;;;5.30;;
15899;SDS011;8048;50.644;6.184;2022-12-05T16:27:02;7.87;;;7.17;;
15899;SDS011;8048;50.644;6.184;2022-12-05T16:29:42;7.40;;;6.60;;
15899;SDS011;8048;50.644;6.184;2022-12-05T16:32:26;8.80;;;6.63;;
15899;SDS011;8048;50.644;6.184;2022-12-05T16:34:52;6.93;;;6.23;;
15899;SDS011;8048;50.644;6.184;2022-12-05T16:37:25;6.03;;;5.43;;
15899;SDS011;8048;50.644;6.184;2022-12-05T16:39:52;8.20;;;6.60;;
15899;SDS011;8048;50.644;6.184;2022-12-05T16:42:25;7.00;;;6.40;;
15899;SDS011;8048;50.644;6.184;2022-12-05T16:44:56;6.77;;;6.17;;
15899;SDS011;8048;50.644;6.184;2022-12-05T16:55:37;5.13;;;4.73;;
15899;SDS011;8048;50.644;6.184;2022-12-05T16:58:03;6.03;;;5.53;;
15899;SDS011;8048;50.644;6.184;2022-12-05T17:00:30;6.43;;;5.83;;
15899;SDS011;8048;50.644;6.184;2022-12-05T17:02:56;8.07;;;6.77;;
15899;SDS011;8048;50.644;6.184;2022-12-05T17:05:22;10.00;;;7.53;;
15899;SDS011;8048;50.644;6.184;2022-12-05T17:07:48;11.93;;;9.40;;
15899;SDS011;8048;50.644;6.184;2022-12-05T17:10:14;6.10;;;5.50;;
15899;SDS011;8048;50.644;6.184;2022-12-05T17:12:40;8.10;;;5.90;;
15899;SDS011;8048;50.644;6.184;2022-12-05T17:15:16;6.87;;;6.23;;
15899;SDS011;8048;50.644;6.184;2022-12-05T17:17:43;6.37;;;5.77;;
15899;SDS011;8048;50.644;6.184;2022-12-05T17:20:09;6.70;;;6.17;;
15899;SDS011;8048;50.644;6.184;2022-12-05T17:22:36;6.37;;;5.77;;
15899;SDS011;8048;50.644;6.184;2022-12-05T17:25:02;6.17;;;5.57;;
15899;SDS011;8048;50.644;6.184;2022-12-05T17:27:28;6.97;;;6.27;;
15899;SDS011;8048;50.644;6.184;2022-12-05T17:29:53;6.93;;;6.33;;
15899;SDS011;8048;50.644;6.184;2022-12-05T17:32:19;6.70;;;6.17;;
15899;SDS011;8048;50.644;6.184;2022-12-05T17:34:44;7.40;;;6.00;;
15899;SDS011;8048;50.644;6.184;2022-12-05T17:37:10;6.30;;;5.70;;
15899;SDS011;8048;50.644;6.184;2022-12-05T17:39:35;6.93;;;6.23;;
15899;SDS011;8048;50.644;6.184;2022-12-05T17:42:01;7.10;;;6.40;;
15899;SDS011;8048;50.644;6.184;2022-12-05T17:44:26;6.87;;;6.27;;
15899;SDS011;8048;50.644;6.184;2022-12-05T17:46:52;6.77;;;6.13;;
15899;SDS011;8048;50.644;6.184;2022-12-05T17:49:17;8.50;;;7.60;;
15899;SDS011;8048;50.644;6.184;2022-12-05T17:51:44;7.80;;;5.87;;
15899;SDS011;8048;50.644;6.184;2022-12-05T17:54:09;5.80;;;5.40;;
15899;SDS011;8048;50.644;6.184;2022-12-05T17:56:35;7.17;;;6.47;;
15899;SDS011;8048;50.644;6.184;2022-12-05T17:59:00;6.53;;;6.00;;
15899;SDS011;8048;50.644;6.184;2022-12-05T18:01:26;8.40;;;7.13;;
15899;SDS011;8048;50.644;6.184;2022-12-05T18:03:51;5.50;;;5.10;;
15899;SDS011;8048;50.644;6.184;2022-12-05T18:06:17;6.43;;;5.83;;
15899;SDS011;8048;50.644;6.184;2022-12-05T18:08:43;6.90;;;5.77;;
15899;SDS011;8048;50.644;6.184;2022-12-05T18:11:09;7.00;;;6.30;;
15899;SDS011;8048;50.644;6.184;2022-12-05T18:13:35;6.23;;;5.83;;